sensor_id;sensor_type;location;lat;lon;timestamp;pressure;altitude;pressure_sealevel;temperature;humidity
64243;BME280;50573;51.512;5.386;2023-02-18T00:02:12;102007.97;;;11.72;100.00
64243;BME280;50573;51.512;5.386;2023-02-18T00:12:16;102005.53;;;11.77;100.00
64243;BME280;50573;51.512;5.386;2023-02-18T00:22:19;101994.22;;;11.79;100.00
64243;BME280;50573;51.512;5.386;2023-02-18T00:32:24;101991.63;;;11.68;100.00
64243;BME280;50573;51.512;5.386;2023-02-18T00:42:27;101988.44;;;11.73;100.00
64243;BME280;50573;51.512;5.386;2023-02-18T00:52:32;101964.28;;;11.72;100.00
64243;BME280;50573;51.512;5.386;2023-02-18T01:02:35;101958.06;;;11.71;100.00
64243;BME280;50573;51.512;5.386;2023-02-18T01:12:39;101946.06;;;11.62;100.00
64243;BME280;50573;51.512;5.386;2023-02-18T01:22:42;101946.94;;;11.55;100.00
64243;BME280;50573;51.512;5.386;2023-02-18T01:32:47;101932.56;;;11.51;100.00
64243;BME280;50573;51.512;5.386;2023-02-18T01:42:50;101915.56;;;11.40;100.00
64243;BME280;50573;51.512;5.386;2023-02-18T01:52:55;101925.03;;;11.32;100.00
64243;BME280;50573;51.512;5.386;2023-02-18T02:02:58;101913.91;;;11.19;100.00
64243;BME280;50573;51.512;5.386;2023-02-18T02:13:08;101908.44;;;11.19;100.00
64243;BME280;50573;51.512;5.386;2023-02-18T02:34:27;101872.66;;;11.14;100.00
64243;BME280;50573;51.512;5.386;2023-02-18T02:44:38;101859.44;;;11.12;100.00
64243;BME280;50573;51.512;5.386;2023-02-18T02:54:46;101851.75;;;11.04;100.00
64243;BME280;50573;51.512;5.386;2023-02-18T03:04:58;101836.25;;;10.97;100.00
64243;BME280;50573;51.512;5.386;2023-02-18T03:15:16;101822.38;;;10.88;100.00
64243;BME280;50573;51.512;5.386;2023-02-18T03:25:23;101785.81;;;10.86;100.00
64243;BME280;50573;51.512;5.386;2023-02-18T03:35:28;101759.03;;;10.77;100.00
64243;BME280;50573;51.512;5.386;2023-02-18T03:45:35;101747.78;;;10.75;100.00
64243;BME280;50573;51.512;5.386;2023-02-18T03:55:39;101740.47;;;10.69;100.00
64243;BME280;50573;51.512;5.386;2023-02-18T04:05:43;101725.25;;;10.71;100.00
64243;BME280;50573;51.512;5.386;2023-02-18T04:15:50;101703.81;;;10.73;100.00
64243;BME280;50573;51.512;5.386;2023-02-18T04:25:53;101711.72;;;10.64;100.00
64243;BME280;50573;51.512;5.386;2023-02-18T04:35:57;101704.22;;;10.72;100.00
64243;BME280;50573;51.512;5.386;2023-02-18T04:46:00;101711.34;;;10.62;100.00
64243;BME280;50573;51.512;5.386;2023-02-18T04:56:05;101697.31;;;10.64;100.00
64243;BME280;50573;51.512;5.386;2023-02-18T05:06:09;101693.09;;;10.59;100.00
64243;BME280;50573;51.512;5.386;2023-02-18T05:16:13;101677.13;;;10.61;100.00
64243;BME280;50573;51.512;5.386;2023-02-18T05:26:16;101658.50;;;10.56;100.00
64243;BME280;50573;51.512;5.386;2023-02-18T05:36:21;101662.78;;;10.57;100.00
64243;BME280;50573;51.512;5.386;2023-02-18T05:46:23;101660.38;;;10.63;100.00
64243;BME280;50573;51.512;5.386;2023-02-18T05:56:28;101667.81;;;10.59;100.00
64243;BME280;50573;51.512;5.386;2023-02-18T06:06:30;101633.72;;;10.47;100.00
64243;BME280;50573;51.512;5.386;2023-02-18T06:16:35;101621.75;;;10.41;100.00
64243;BME280;50573;51.512;5.386;2023-02-18T06:26:37;101624.38;;;10.48;100.00
64243;BME280;50573;51.512;5.386;2023-02-18T06:36:41;101618.94;;;10.48;100.00
64243;BME280;50573;51.512;5.386;2023-02-18T06:46:44;101622.81;;;10.47;100.00
64243;BME280;50573;51.512;5.386;2023-02-18T06:56:48;101631.78;;;10.48;100.00
64243;BME280;50573;51.512;5.386;2023-02-18T07:06:51;101633.84;;;10.40;100.00
64243;BME280;50573;51.512;5.386;2023-02-18T07:16:55;101627.53;;;10.47;100.00
64243;BME280;50573;51.512;5.386;2023-02-18T07:27:01;101657.34;;;10.27;100.00
64243;BME280;50573;51.512;5.386;2023-02-18T07:37:05;101653.59;;;10.18;100.00
64243;BME280;50573;51.512;5.386;2023-02-18T07:47:12;101672.31;;;10.12;100.00
64243;BME280;50573;51.512;5.386;2023-02-18T07:57:16;101685.13;;;10.15;100.00
64243;BME280;50573;51.512;5.386;2023-02-18T08:07:20;101674.53;;;10.24;100.00
64243;BME280;50573;51.512;5.386;2023-02-18T08:17:25;101683.72;;;10.34;100.00
64243;BME280;50573;51.512;5.386;2023-02-18T08:27:28;101663.13;;;10.59;100.00
64243;BME280;50573;51.512;5.386;2023-02-18T08:37:32;101666.66;;;10.83;100.00
64243;BME280;50573;51.512;5.386;2023-02-18T08:47:54;101667.44;;;10.83;100.00
64243;BME280;50573;51.512;5.386;2023-02-18T08:58:18;101684.59;;;10.84;99.07
64243;BME280;50573;51.512;5.386;2023-02-18T09:08:21;101675.06;;;10.95;98.02
64243;BME280;50573;51.512;5.386;2023-02-18T09:18:26;101674.59;;;11.00;98.09
64243;BME280;50573;51.512;5.386;2023-02-18T09:28:29;101685.91;;;10.72;99.52
64243;BME280;50573;51.512;5.386;2023-02-18T09:38:33;101674.38;;;10.65;99.17
64243;BME280;50573;51.512;5.386;2023-02-18T09:48:36;101673.63;;;10.61;98.88
64243;BME280;50573;51.512;5.386;2023-02-18T09:58:41;101696.09;;;10.68;98.26
64243;BME280;50573;51.512;5.386;2023-02-18T10:08:45;101698.81;;;10.68;97.93
64243;BME280;50573;51.512;5.386;2023-02-18T10:18:51;101700.53;;;10.85;97.05
64243;BME280;50573;51.512;5.386;2023-02-18T10:28:56;101713.69;;;10.90;97.07
64243;BME280;50573;51.512;5.386;2023-02-18T10:49:29;101732.00;;;11.16;96.59
64243;BME280;50573;51.512;5.386;2023-02-18T10:59:36;101735.97;;;11.35;96.56
64243;BME280;50573;51.512;5.386;2023-02-18T11:09:41;101741.44;;;11.35;96.63
64243;BME280;50573;51.512;5.386;2023-02-18T11:19:55;101744.84;;;11.43;96.76
64243;BME280;50573;51.512;5.386;2023-02-18T11:30:01;101734.16;;;11.52;96.75
64243;BME280;50573;51.512;5.386;2023-02-18T11:40:05;101746.72;;;11.46;100.00
64243;BME280;50573;51.512;5.386;2023-02-18T11:50:17;101728.28;;;11.53;99.41
64243;BME280;50573;51.512;5.386;2023-02-18T12:00:23;101734.84;;;11.79;97.10
64243;BME280;50573;51.512;5.386;2023-02-18T12:10:29;101735.84;;;11.88;96.53
64243;BME280;50573;51.512;5.386;2023-02-18T12:20:46;101720.81;;;12.39;94.78
64243;BME280;50573;51.512;5.386;2023-02-18T12:31:02;101711.03;;;12.77;92.31
64243;BME280;50573;51.512;5.386;2023-02-18T12:41:12;101703.97;;;12.60;92.10
64243;BME280;50573;51.512;5.386;2023-02-18T12:51:33;101714.75;;;12.67;93.34
64243;BME280;50573;51.512;5.386;2023-02-18T13:01:42;101708.59;;;12.63;92.72
64243;BME280;50573;51.512;5.386;2023-02-18T13:11:51;101712.53;;;12.62;92.45
64243;BME280;50573;51.512;5.386;2023-02-18T13:21:58;101719.88;;;12.65;93.61
64243;BME280;50573;51.512;5.386;2023-02-18T13:32:05;101713.97;;;12.67;94.91
64243;BME280;50573;51.512;5.386;2023-02-18T13:42:21;101708.06;;;13.04;92.50
64243;BME280;50573;51.512;5.386;2023-02-18T13:52:27;101702.09;;;13.25;91.10
64243;BME280;50573;51.512;5.386;2023-02-18T14:02:31;101717.31;;;13.42;89.20
64243;BME280;50573;51.512;5.386;2023-02-18T14:12:38;101713.78;;;13.57;87.96
64243;BME280;50573;51.512;5.386;2023-02-18T14:22:43;101707.44;;;13.60;87.94
64243;BME280;50573;51.512;5.386;2023-02-18T14:32:48;101718.75;;;13.62;87.00
64243;BME280;50573;51.512;5.386;2023-02-18T14:42:54;101716.13;;;13.43;87.51
64243;BME280;50573;51.512;5.386;2023-02-18T14:53:04;101717.56;;;13.31;88.42
64243;BME280;50573;51.512;5.386;2023-02-18T15:03:10;101723.38;;;13.01;89.78
64243;BME280;50573;51.512;5.386;2023-02-18T15:13:17;101709.41;;;12.96;90.52
64243;BME280;50573;51.512;5.386;2023-02-18T15:23:21;101707.03;;;12.98;89.69
64243;BME280;50573;51.512;5.386;2023-02-18T15:33:26;101712.25;;;13.08;90.11
64243;BME280;50573;51.512;5.386;2023-02-18T15:43:29;101699.16;;;13.00;89.80
64243;BME280;50573;51.512;5.386;2023-02-18T15:53:35;101703.00;;;12.86;91.03
64243;BME280;50573;51.512;5.386;2023-02-18T16:03:43;101714.03;;;12.99;91.21
64243;BME280;50573;51.512;5.386;2023-02-18T16:13:48;101703.50;;;12.81;93.19
64243;BME280;50573;51.512;5.386;2023-02-18T16:23:52;101696.44;;;12.48;97.99
64243;BME280;50573;51.512;5.386;2023-02-18T16:33:59;101709.47;;;12.21;100.00
64243;BME280;50573;51.512;5.386;2023-02-18T16:44:06;101710.53;;;12.07;100.00
64243;BME280;50573;51.512;5.386;2023-02-18T16:54:15;101701.19;;;11.85;100.00
64243;BME280;50573;51.512;5.386;2023-02-18T17:04:19;101704.69;;;11.66;100.00
64243;BME280;50573;51.512;5.386;2023-02-18T17:14:25;101700.63;;;11.51;100.00
64243;BME280;50573;51.512;5.386;2023-02-18T17:24:28;101695.41;;;11.37;100.00
64243;BME280;50573;51.512;5.386;2023-02-18T17:34:32;101694.56;;;11.17;100.00
64243;BME280;50573;51.512;5.386;2023-02-18T17:44:38;101691.44;;;11.18;100.00
64243;BME280;50573;51.512;5.386;2023-02-18T17:54:43;101709.91;;;11.07;100.00
64243;BME280;50573;51.512;5.386;2023-02-18T18:04:45;101699.38;;;11.09;100.00
64243;BME280;50573;51.512;5.386;2023-02-18T18:14:50;101698.31;;;11.03;100.00
64243;BME280;50573;51.512;5.386;2023-02-18T18:24:53;101721.19;;;11.09;100.00
64243;BME280;50573;51.512;5.386;2023-02-18T18:34:57;101699.38;;;11.09;100.00
64243;BME280;50573;51.512;5.386;2023-02-18T18:45:00;101702.88;;;11.10;100.00
64243;BME280;50573;51.512;5.386;2023-02-18T18:55:05;101714.53;;;11.10;100.00
64243;BME280;50573;51.512;5.386;2023-02-18T19:05:19;101700.38;;;11.19;100.00
64243;BME280;50573;51.512;5.386;2023-02-18T19:15:23;101693.75;;;11.20;100.00
64243;BME280;50573;51.512;5.386;2023-02-18T19:25:26;101697.97;;;11.25;100.00
64243;BME280;50573;51.512;5.386;2023-02-18T19:35:31;101691.72;;;11.24;100.00
64243;BME280;50573;51.512;5.386;2023-02-18T19:45:34;101657.47;;;11.23;100.00
64243;BME280;50573;51.512;5.386;2023-02-18T19:55:44;101642.22;;;11.26;100.00
64243;BME280;50573;51.512;5.386;2023-02-18T20:05:47;101649.50;;;11.32;100.00
64243;BME280;50573;51.512;5.386;2023-02-18T20:15:51;101653.38;;;11.35;100.00
64243;BME280;50573;51.512;5.386;2023-02-18T20:25:54;101636.19;;;11.38;100.00
64243;BME280;50573;51.512;5.386;2023-02-18T20:35:59;101607.00;;;11.35;100.00
64243;BME280;50573;51.512;5.386;2023-02-18T20:46:05;101614.13;;;11.29;100.00
64243;BME280;50573;51.512;5.386;2023-02-18T20:56:10;101607.81;;;11.32;100.00
64243;BME280;50573;51.512;5.386;2023-02-18T21:06:13;101615.88;;;11.39;100.00
64243;BME280;50573;51.512;5.386;2023-02-18T21:16:18;101623.72;;;11.37;100.00
64243;BME280;50573;51.512;5.386;2023-02-18T21:26:22;101606.66;;;11.33;100.00
64243;BME280;50573;51.512;5.386;2023-02-18T21:36:27;101609.03;;;11.31;100.00
64243;BME280;50573;51.512;5.386;2023-02-18T21:46:32;101593.50;;;11.28;100.00
64243;BME280;50573;51.512;5.386;2023-02-18T21:56:36;101561.19;;;11.26;100.00
64243;BME280;50573;51.512;5.386;2023-02-18T22:06:39;101581.19;;;11.19;100.00
64243;BME280;50573;51.512;5.386;2023-02-18T22:16:44;101578.81;;;11.22;100.00
64243;BME280;50573;51.512;5.386;2023-02-18T22:26:46;101577.19;;;11.24;100.00
64243;BME280;50573;51.512;5.386;2023-02-18T22:36:52;101599.63;;;11.32;100.00
64243;BME280;50573;51.512;5.386;2023-02-18T22:46:55;101586.00;;;11.32;100.00
64243;BME280;50573;51.512;5.386;2023-02-18T22:57:00;101580.91;;;11.34;100.00
64243;BME280;50573;51.512;5.386;2023-02-18T23:07:03;101578.19;;;11.34;100.00
64243;BME280;50573;51.512;5.386;2023-02-18T23:17:07;101576.22;;;11.34;100.00
64243;BME280;50573;51.512;5.386;2023-02-18T23:27:21;101573.84;;;11.36;100.00
64243;BME280;50573;51.512;5.386;2023-02-18T23:37:26;101576.84;;;11.42;100.00
64243;BME280;50573;51.512;5.386;2023-02-18T23:47:44;101573.03;;;11.39;100.00
64243;BME280;50573;51.512;5.386;2023-02-18T23:57:48;101582.72;;;11.40;100.00
